Time;durP1;ratioP1;P1;durP2;ratioP2;P2;SDS_P1;SDS_P2;PMS_P1;PMS_P2;Temp;Humidity;BMP_temperature;BMP_pressure;BME280_temperature;BME280_humidity;BME280_pressure;Samples;Min_cycle;Max_cycle;Signal;HPM_P1;HPM_P2
2021/10/12 00:01:17;;;;;;;7.53;2.40;;;8.90;65.40;;;;;;5042603;28;20024;-80
2021/10/12 00:03:43;;;;;;;4.30;2.47;;;9.00;65.40;;;;;;5052223;28;20148;-79
2021/10/12 00:06:08;;;;;;;5.63;3.03;;;9.00;65.30;;;;;;5047732;28;20037;-80
2021/10/12 00:08:35;;;;;;;6.03;3.30;;;9.00;65.30;;;;;;5045745;28;20033;-79
2021/10/12 00:11:01;;;;;;;5.83;3.50;;;8.90;65.20;;;;;;5050267;28;20029;-80
2021/10/12 00:13:27;;;;;;;5.13;3.77;;;8.90;65.40;;;;;;5050021;28;21967;-80
2021/10/12 00:15:53;;;;;;;6.93;3.67;;;8.90;65.30;;;;;;5050828;28;20112;-80
2021/10/12 00:18:18;;;;;;;5.23;3.53;;;8.80;65.40;;;;;;5061736;28;20107;-80
2021/10/12 00:20:44;;;;;;;5.60;3.60;;;8.90;65.30;;;;;;5049447;28;20040;-79
2021/10/12 00:23:10;;;;;;;5.57;3.07;;;8.80;65.10;;;;;;5054515;28;20100;-80
2021/10/12 00:25:36;;;;;;;8.40;3.53;;;8.70;65.30;;;;;;5050501;28;20040;-80
2021/10/12 00:28:02;;;;;;;8.03;3.30;;;8.80;65.60;;;;;;5052330;28;20052;-80
2021/10/12 00:30:29;;;;;;;6.90;3.70;;;8.80;65.40;;;;;;5051166;28;20048;-80
2021/10/12 00:32:54;;;;;;;5.37;3.73;;;8.80;65.30;;;;;;5052961;28;20494;-80
2021/10/12 00:35:20;;;;;;;8.27;4.43;;;8.80;65.50;;;;;;5047795;28;20029;-80
2021/10/12 00:37:46;;;;;;;11.13;4.83;;;8.80;65.50;;;;;;5059953;28;20033;-80
2021/10/12 00:40:12;;;;;;;9.70;4.97;;;8.80;65.70;;;;;;5052019;28;22305;-80
2021/10/12 00:42:37;;;;;;;7.60;4.57;;;8.80;66.00;;;;;;5060455;28;20032;-80
2021/10/12 00:45:05;;;;;;;6.73;4.30;;;8.80;66.10;;;;;;5055352;28;20557;-79
2021/10/12 00:47:31;;;;;;;11.07;5.07;;;8.80;66.10;;;;;;5046533;28;20079;-80
2021/10/12 00:49:57;;;;;;;6.33;4.43;;;8.70;66.30;;;;;;5059205;28;20433;-80
2021/10/12 00:52:22;;;;;;;10.10;4.40;;;8.70;66.50;;;;;;5057874;28;20142;-79
2021/10/12 00:54:48;;;;;;;5.43;3.63;;;8.70;66.50;;;;;;5049692;28;20033;-80
2021/10/12 00:57:14;;;;;;;6.83;4.47;;;8.70;66.60;;;;;;5053595;28;20112;-80
2021/10/12 00:59:40;;;;;;;7.63;4.33;;;8.70;67.20;;;;;;5049672;28;20025;-80
2021/10/12 01:02:07;;;;;;;8.07;4.50;;;8.70;66.60;;;;;;5054072;28;20490;-79
2021/10/12 01:04:33;;;;;;;6.10;4.23;;;8.70;66.40;;;;;;5051454;28;20033;-80
2021/10/12 01:06:59;;;;;;;7.97;4.67;;;8.70;66.50;;;;;;5046509;28;20032;-80
2021/10/12 01:09:25;;;;;;;6.03;4.13;;;8.70;66.50;;;;;;5057020;28;20028;-80
2021/10/12 01:11:51;;;;;;;5.23;3.50;;;8.70;66.70;;;;;;5051711;28;20016;-80
2021/10/12 01:14:17;;;;;;;9.57;4.40;;;8.70;66.90;;;;;;5050788;28;20025;-80
2021/10/12 01:16:43;;;;;;;6.13;4.13;;;8.70;66.70;;;;;;5050476;28;20051;-80
2021/10/12 01:19:10;;;;;;;8.23;5.10;;;8.70;66.90;;;;;;5045203;28;20059;-80
2021/10/12 01:21:48;;;;;;;8.07;4.93;;;8.60;66.90;;;;;;5058945;28;20020;-80
2021/10/12 01:24:16;;;;;;;8.00;5.20;;;8.70;67.10;;;;;;5047524;28;20025;-80
2021/10/12 01:26:43;;;;;;;6.13;4.30;;;8.70;67.10;;;;;;5050924;28;20384;-80
2021/10/12 01:29:11;;;;;;;10.00;4.80;;;8.80;67.20;;;;;;5046432;28;20044;-80
2021/10/12 01:31:37;;;;;;;9.20;5.00;;;8.80;67.00;;;;;;5044185;28;20538;-80
2021/10/12 01:34:14;;;;;;;9.53;5.00;;;8.80;66.90;;;;;;5047313;28;20052;-80
2021/10/12 01:36:40;;;;;;;8.77;4.97;;;8.80;67.20;;;;;;5041567;28;20052;-80
2021/10/12 01:39:06;;;;;;;8.60;5.00;;;8.90;67.20;;;;;;5053099;28;20029;-80
2021/10/12 01:41:32;;;;;;;7.43;4.27;;;9.00;67.10;;;;;;5045284;28;20036;-80
2021/10/12 01:43:57;;;;;;;6.30;4.60;;;9.00;67.10;;;;;;5049091;28;20025;-80
2021/10/12 01:46:23;;;;;;;8.40;4.60;;;9.10;67.40;;;;;;5039669;28;20360;-80
2021/10/12 01:48:49;;;;;;;6.03;4.33;;;9.10;67.50;;;;;;5045696;28;20388;-80
2021/10/12 01:51:14;;;;;;;8.93;4.03;;;9.10;67.40;;;;;;5043628;28;20033;-80
2021/10/12 01:53:40;;;;;;;8.97;4.60;;;9.10;67.30;;;;;;5053956;28;20262;-80
2021/10/12 01:56:06;;;;;;;8.37;4.43;;;9.10;67.20;;;;;;5053260;28;20490;-80
2021/10/12 01:58:32;;;;;;;7.50;5.07;;;9.10;67.40;;;;;;5042345;28;20039;-80
2021/10/12 02:00:58;;;;;;;7.73;5.20;;;9.10;67.30;;;;;;5049002;28;20064;-80
2021/10/12 02:03:24;;;;;;;7.43;5.00;;;9.10;67.20;;;;;;5037916;28;20475;-80
2021/10/12 02:05:49;;;;;;;7.47;4.70;;;9.10;67.40;;;;;;5050896;28;20033;-80
2021/10/12 02:08:15;;;;;;;7.63;4.80;;;9.00;67.40;;;;;;5047482;28;20033;-80
2021/10/12 02:10:41;;;;;;;7.53;5.07;;;9.00;67.60;;;;;;5053201;28;20495;-80
2021/10/12 02:13:07;;;;;;;8.13;4.70;;;9.00;67.50;;;;;;5047717;28;20025;-80
2021/10/12 02:15:33;;;;;;;9.60;4.80;;;9.10;67.60;;;;;;5067790;28;20550;-80
2021/10/12 02:18:00;;;;;;;12.07;5.87;;;9.10;67.50;;;;;;5043903;28;20109;-80
2021/10/12 02:20:26;;;;;;;9.77;6.30;;;9.10;67.50;;;;;;5043814;28;20037;-80
2021/10/12 02:22:51;;;;;;;8.73;5.80;;;9.10;67.50;;;;;;5051466;28;20044;-80
2021/10/12 02:25:17;;;;;;;9.63;5.23;;;9.10;67.70;;;;;;5044275;28;20025;-80
2021/10/12 02:27:43;;;;;;;9.07;5.17;;;9.10;67.70;;;;;;5054569;28;20548;-78
2021/10/12 02:30:10;;;;;;;8.23;5.23;;;9.10;67.80;;;;;;5045038;28;20061;-78
2021/10/12 02:32:36;;;;;;;8.37;4.83;;;9.10;67.80;;;;;;5041217;28;20017;-79
2021/10/12 02:35:03;;;;;;;8.23;4.60;;;9.10;67.70;;;;;;5046259;28;20396;-79
2021/10/12 02:37:28;;;;;;;5.27;3.93;;;9.10;67.70;;;;;;5056252;28;20492;-79
2021/10/12 02:39:54;;;;;;;8.00;5.03;;;9.10;67.90;;;;;;5036155;28;20032;-79
2021/10/12 02:42:20;;;;;;;8.63;4.67;;;9.20;67.70;;;;;;5038038;28;20067;-79
2021/10/12 02:44:46;;;;;;;9.50;4.50;;;9.30;67.70;;;;;;5049729;28;20034;-79
2021/10/12 02:47:12;;;;;;;5.33;4.37;;;9.20;67.80;;;;;;5040937;28;20441;-79
2021/10/12 02:49:38;;;;;;;5.60;4.07;;;9.10;67.70;;;;;;5044680;28;20029;-79
2021/10/12 02:52:04;;;;;;;7.37;4.30;;;9.10;68.20;;;;;;5044873;28;20478;-78
2021/10/12 02:54:30;;;;;;;7.10;4.00;;;9.20;68.10;;;;;;5045075;28;20472;-79
2021/10/12 02:56:56;;;;;;;12.30;4.10;;;9.30;68.20;;;;;;5044888;28;20082;-79
2021/10/12 02:59:22;;;;;;;6.03;3.70;;;9.40;67.80;;;;;;5059685;28;20032;-79
2021/10/12 03:01:48;;;;;;;6.80;4.43;;;9.60;68.10;;;;;;5051374;28;20380;-79
2021/10/12 03:04:14;;;;;;;7.50;4.30;;;9.70;67.30;;;;;;5049953;28;20038;-79
2021/10/12 03:06:40;;;;;;;7.63;4.60;;;9.70;67.30;;;;;;5046211;28;20037;-79
2021/10/12 03:09:06;;;;;;;10.57;4.97;;;9.70;66.90;;;;;;5044643;28;20056;-78
2021/10/12 03:11:32;;;;;;;7.20;5.23;;;9.70;67.00;;;;;;5049699;28;20059;-79
2021/10/12 03:13:58;;;;;;;6.40;4.30;;;9.60;66.80;;;;;;5041098;28;20125;-79
2021/10/12 03:16:23;;;;;;;8.90;5.07;;;9.50;66.80;;;;;;5043428;28;20380;-79
2021/10/12 03:18:49;;;;;;;12.40;5.57;;;9.50;67.10;;;;;;5036474;28;21953;-79
2021/10/12 03:21:15;;;;;;;8.77;5.23;;;9.50;67.10;;;;;;5058430;28;20024;-79
2021/10/12 03:23:42;;;;;;;7.53;5.40;;;9.50;67.20;;;;;;5057535;28;20467;-79
2021/10/12 03:26:08;;;;;;;10.83;5.60;;;9.50;67.20;;;;;;5062524;28;20032;-79
2021/10/12 03:28:34;;;;;;;11.07;5.73;;;9.40;67.20;;;;;;5051151;28;20044;-79
2021/10/12 03:31:00;;;;;;;10.60;5.37;;;9.40;67.30;;;;;;5048927;28;20733;-79
2021/10/12 03:33:26;;;;;;;7.23;5.07;;;9.40;67.30;;;;;;5061478;28;20090;-79
2021/10/12 03:35:59;;;;;;;9.20;5.53;;;9.50;67.30;;;;;;5058424;28;20032;-79
2021/10/12 03:38:26;;;;;;;10.77;6.00;;;9.40;67.20;;;;;;5056124;28;20029;-79
2021/10/12 03:40:54;;;;;;;7.63;5.03;;;9.40;67.30;;;;;;5036382;28;20045;-79
2021/10/12 03:43:21;;;;;;;10.90;5.23;;;9.40;67.50;;;;;;5051417;28;20023;-79
2021/10/12 03:45:47;;;;;;;10.60;5.90;;;9.40;67.50;;;;;;5059678;28;20025;-79
2021/10/12 03:48:14;;;;;;;9.43;5.83;;;9.40;67.50;;;;;;5051159;28;20032;-79
2021/10/12 03:50:40;;;;;;;11.80;4.90;;;9.40;67.60;;;;;;5053632;28;20482;-79
2021/10/12 03:53:05;;;;;;;8.63;5.57;;;9.40;67.60;;;;;;5062088;28;20017;-79
2021/10/12 03:55:31;;;;;;;11.03;6.10;;;9.50;67.70;;;;;;5049413;28;20025;-79
2021/10/12 03:57:57;;;;;;;10.40;5.67;;;9.50;67.80;;;;;;5059075;28;20017;-79
2021/10/12 04:00:23;;;;;;;7.87;5.53;;;9.50;67.80;;;;;;5045043;28;20048;-79
2021/10/12 04:02:49;;;;;;;11.00;6.33;;;9.50;67.90;;;;;;5058743;28;20029;-79
2021/10/12 04:05:15;;;;;;;11.17;5.87;;;9.50;68.10;;;;;;5051147;28;20473;-79
2021/10/12 04:07:41;;;;;;;11.07;5.90;;;9.50;68.10;;;;;;5059933;28;20376;-79
2021/10/12 04:10:08;;;;;;;8.80;5.80;;;9.50;68.10;;;;;;5049035;28;20025;-79
2021/10/12 04:12:33;;;;;;;10.23;5.63;;;9.50;68.10;;;;;;5061072;28;20031;-80
2021/10/12 04:14:59;;;;;;;8.53;5.57;;;9.50;68.10;;;;;;5051754;28;20430;-79
2021/10/12 04:17:25;;;;;;;9.13;5.17;;;9.50;68.30;;;;;;5050434;28;20426;-79
2021/10/12 04:19:51;;;;;;;10.20;6.07;;;9.50;68.30;;;;;;5051626;28;20033;-79
2021/10/12 04:22:16;;;;;;;8.93;6.00;;;9.50;68.30;;;;;;5054117;28;20476;-80
2021/10/12 04:24:42;;;;;;;9.73;5.50;;;9.50;68.40;;;;;;5058612;28;20033;-80
2021/10/12 04:27:08;;;;;;;9.63;6.27;;;9.50;68.50;;;;;;5060879;28;20112;-79
2021/10/12 04:29:34;;;;;;;11.87;6.37;;;9.50;68.50;;;;;;5048329;28;20395;-79
2021/10/12 04:32:01;;;;;;;10.57;6.23;;;9.50;68.50;;;;;;5044248;28;20476;-79
2021/10/12 04:34:27;;;;;;;9.67;5.87;;;9.50;68.50;;;;;;5059814;28;20017;-80
2021/10/12 04:36:56;;;;;;;10.20;6.23;;;9.50;68.70;;;;;;5051564;28;20024;-79
2021/10/12 04:39:22;;;;;;;10.63;5.50;;;9.50;68.60;;;;;;5050815;28;20037;-79
2021/10/12 04:41:49;;;;;;;9.73;7.07;;;9.50;69.00;;;;;;5046424;28;20024;-79
2021/10/12 04:44:15;;;;;;;11.00;6.90;;;9.50;69.00;;;;;;5044290;28;21861;-79
2021/10/12 04:46:41;;;;;;;8.97;6.50;;;9.50;69.20;;;;;;5042296;28;20071;-79
2021/10/12 04:49:07;;;;;;;11.70;7.07;;;9.50;69.10;;;;;;5048780;28;20033;-79
2021/10/12 04:51:33;;;;;;;13.33;7.50;;;9.40;69.10;;;;;;5052155;28;20032;-79
2021/10/12 04:53:59;;;;;;;15.77;8.63;;;9.40;69.20;;;;;;5049902;28;20021;-80
2021/10/12 04:56:25;;;;;;;10.97;7.87;;;9.40;69.30;;;;;;5041205;28;20025;-79
2021/10/12 04:58:51;;;;;;;13.83;8.07;;;9.40;69.30;;;;;;5049801;28;20090;-79
2021/10/12 05:01:17;;;;;;;12.33;7.73;;;9.40;69.30;;;;;;5041834;28;20049;-79
2021/10/12 05:03:43;;;;;;;14.13;8.33;;;9.50;69.40;;;;;;5045915;28;20026;-79
2021/10/12 05:06:09;;;;;;;12.87;7.10;;;9.40;69.20;;;;;;5047605;28;20024;-79
2021/10/12 05:08:34;;;;;;;12.23;7.03;;;9.40;69.30;;;;;;5054286;28;20032;-79
2021/10/12 05:11:00;;;;;;;14.80;8.13;;;9.40;69.50;;;;;;5047050;28;20033;-79
2021/10/12 05:13:27;;;;;;;11.90;7.13;;;9.40;69.60;;;;;;5059351;28;20044;-79
2021/10/12 05:15:53;;;;;;;13.23;7.27;;;9.30;69.60;;;;;;5057669;28;20028;-80
2021/10/12 05:18:24;;;;;;;11.10;7.33;;;9.30;69.60;;;;;;5044184;28;20029;-79
2021/10/12 05:20:50;;;;;;;11.27;6.93;;;9.40;69.70;;;;;;5050480;28;20029;-80
2021/10/12 05:23:16;;;;;;;11.63;7.00;;;9.30;69.80;;;;;;5051489;28;20029;-80
2021/10/12 05:25:46;;;;;;;14.30;7.30;;;9.30;69.80;;;;;;5053162;28;20029;-79
2021/10/12 05:28:12;;;;;;;11.60;7.27;;;9.30;69.70;;;;;;5044693;28;20538;-79
2021/10/12 05:30:39;;;;;;;10.80;6.40;;;9.30;69.80;;;;;;5038427;28;20064;-79
2021/10/12 05:33:13;;;;;;;13.97;7.23;;;9.30;69.90;;;;;;5048392;28;20037;-80
2021/10/12 05:35:38;;;;;;;12.30;7.97;;;9.30;70.10;;;;;;5050784;28;20643;-79
2021/10/12 05:38:04;;;;;;;17.03;9.47;;;9.30;70.20;;;;;;5051600;28;20029;-80
2021/10/12 05:40:30;;;;;;;9.53;6.43;;;9.30;70.50;;;;;;5051020;28;20032;-79
2021/10/12 05:42:56;;;;;;;10.57;7.10;;;9.40;70.30;;;;;;5053093;28;20090;-79
2021/10/12 05:45:22;;;;;;;12.30;6.97;;;9.40;70.40;;;;;;5048493;28;20443;-79
2021/10/12 05:47:48;;;;;;;11.13;7.33;;;9.40;70.30;;;;;;5052661;28;20025;-80
2021/10/12 05:50:15;;;;;;;13.53;7.03;;;9.30;70.20;;;;;;5042446;28;20022;-79
2021/10/12 05:52:44;;;;;;;9.90;6.13;;;9.30;70.10;;;;;;5048560;28;20056;-80
2021/10/12 05:55:14;;;;;;;14.20;5.77;;;9.30;70.10;;;;;;5045597;28;20032;-79
2021/10/12 06:00:41;;;;;;;11.17;5.80;;;9.40;69.30;;;;;;5009940;28;20480;-79
2021/10/12 06:03:06;;;;;;;10.17;6.07;;;9.30;69.10;;;;;;5038534;28;20093;-79
2021/10/12 06:05:34;;;;;;;12.50;5.50;;;9.20;69.30;;;;;;5050444;28;20382;-80
2021/10/12 06:07:59;;;;;;;9.47;5.77;;;9.20;69.30;;;;;;5050874;28;20029;-79
2021/10/12 06:10:25;;;;;;;8.83;5.43;;;9.20;69.30;;;;;;5050790;28;20376;-79
2021/10/12 06:12:51;;;;;;;10.53;5.70;;;9.30;69.40;;;;;;5051555;28;20028;-79
2021/10/12 06:15:17;;;;;;;14.43;5.67;;;9.20;69.20;;;;;;5049929;28;20028;-79
2021/10/12 06:17:43;;;;;;;7.93;5.63;;;9.20;69.30;;;;;;5052437;28;20056;-79
2021/10/12 06:20:09;;;;;;;12.40;6.47;;;9.30;69.20;;;;;;5052204;28;20029;-79
2021/10/12 06:22:34;;;;;;;11.47;6.17;;;9.30;68.90;;;;;;5049589;28;20508;-79
2021/10/12 06:25:00;;;;;;;10.97;5.73;;;9.30;68.60;;;;;;5043808;28;20079;-80
2021/10/12 06:27:26;;;;;;;11.03;5.93;;;9.30;68.40;;;;;;5050832;28;20021;-79
2021/10/12 06:29:52;;;;;;;10.93;6.33;;;9.30;68.60;;;;;;5041320;28;20097;-81
2021/10/12 06:32:17;;;;;;;13.20;5.70;;;9.20;68.60;;;;;;5039060;28;20057;-78
2021/10/12 06:34:43;;;;;;;9.47;5.90;;;9.20;69.20;;;;;;5044839;28;20051;-79
2021/10/12 06:37:09;;;;;;;9.37;6.20;;;9.10;68.40;;;;;;5042649;28;20487;-79
2021/10/12 06:39:35;;;;;;;10.20;5.47;;;9.10;68.50;;;;;;5046783;28;20048;-79
2021/10/12 06:42:01;;;;;;;12.10;6.43;;;9.10;68.40;;;;;;5040090;28;20026;-79
2021/10/12 06:44:27;;;;;;;13.07;5.80;;;9.10;68.50;;;;;;5041518;28;20091;-79
2021/10/12 06:46:53;;;;;;;11.60;5.87;;;9.10;68.60;;;;;;5049943;28;20033;-80
2021/10/12 06:49:18;;;;;;;8.27;5.53;;;9.10;68.50;;;;;;5050844;28;20029;-79
2021/10/12 06:51:44;;;;;;;12.83;6.53;;;9.00;68.40;;;;;;5050687;28;20082;-79
2021/10/12 06:54:10;;;;;;;11.57;5.57;;;9.00;68.30;;;;;;5051016;28;20025;-79
2021/10/12 06:56:36;;;;;;;13.17;6.10;;;9.00;68.30;;;;;;5045538;28;20096;-79
2021/10/12 06:59:01;;;;;;;9.50;5.93;;;9.00;68.30;;;;;;5051344;28;20031;-79
2021/10/12 07:01:27;;;;;;;12.53;5.87;;;9.00;68.30;;;;;;5048681;28;20771;-79
2021/10/12 07:03:53;;;;;;;11.50;5.90;;;9.00;68.60;;;;;;5047524;28;20024;-79
2021/10/12 07:06:19;;;;;;;9.53;6.17;;;9.00;68.70;;;;;;5047205;28;20028;-79
2021/10/12 07:08:45;;;;;;;8.60;4.87;;;9.00;68.70;;;;;;5031219;28;20036;-79
2021/10/12 07:11:10;;;;;;;8.87;6.40;;;9.10;69.00;;;;;;5042182;28;20021;-79
2021/10/12 07:13:36;;;;;;;12.50;6.83;;;9.20;68.90;;;;;;5049484;28;20025;-79
2021/10/12 07:16:02;;;;;;;15.77;6.83;;;9.30;69.00;;;;;;5049602;28;20057;-79
2021/10/12 07:18:27;;;;;;;18.10;6.60;;;9.20;68.90;;;;;;5030649;28;20052;-79
2021/10/12 07:20:53;;;;;;;9.97;6.50;;;9.30;69.10;;;;;;5046076;28;20352;-79
2021/10/12 07:23:19;;;;;;;10.83;6.47;;;9.20;69.00;;;;;;5049389;28;20075;-79
2021/10/12 07:25:45;;;;;;;14.17;7.57;;;9.20;69.20;;;;;;5049627;28;20100;-79
2021/10/12 07:28:11;;;;;;;15.27;7.63;;;9.20;69.50;;;;;;5043087;28;20484;-79
2021/10/12 07:30:37;;;;;;;11.27;6.63;;;9.20;69.80;;;;;;5044417;28;20079;-79
2021/10/12 07:33:02;;;;;;;15.20;7.27;;;9.20;69.80;;;;;;5050234;28;20025;-79
2021/10/12 07:35:28;;;;;;;16.13;7.50;;;9.30;69.90;;;;;;5046917;28;20036;-80
2021/10/12 07:37:55;;;;;;;13.27;6.57;;;9.30;69.70;;;;;;5038466;28;20468;-79
2021/10/12 07:40:21;;;;;;;13.47;7.70;;;9.30;69.70;;;;;;5046785;28;20079;-79
2021/10/12 07:42:47;;;;;;;13.40;6.37;;;9.30;69.60;;;;;;5039996;28;20041;-79
2021/10/12 07:45:13;;;;;;;12.93;7.47;;;9.30;69.60;;;;;;5045307;28;20028;-79
2021/10/12 07:47:39;;;;;;;11.20;7.13;;;9.30;70.30;;;;;;5048304;28;20029;-79
2021/10/12 07:50:06;;;;;;;15.73;7.17;;;9.30;69.60;;;;;;5037593;28;20033;-79
2021/10/12 07:52:33;;;;;;;18.37;7.33;;;9.30;69.60;;;;;;5051168;28;20029;-79
2021/10/12 07:55:14;;;;;;;14.37;6.60;;;9.20;69.40;;;;;;5035386;28;20345;-79
2021/10/12 07:57:40;;;;;;;13.97;6.93;;;9.30;69.70;;;;;;5054877;28;20139;-79
2021/10/12 08:00:09;;;;;;;12.17;7.43;;;9.30;69.60;;;;;;5048964;28;20082;-80
2021/10/12 08:02:35;;;;;;;12.20;7.20;;;9.30;69.40;;;;;;5047635;28;20056;-79
2021/10/12 08:05:00;;;;;;;9.70;6.77;;;9.30;69.50;;;;;;5048863;28;20442;-79
2021/10/12 08:07:26;;;;;;;11.70;6.80;;;9.30;69.40;;;;;;5047238;28;20051;-79
2021/10/12 08:09:52;;;;;;;12.77;7.50;;;9.30;69.40;;;;;;5045044;28;20037;-79
2021/10/12 08:12:18;;;;;;;14.83;7.73;;;9.30;69.60;;;;;;5048563;28;20036;-79
2021/10/12 08:14:47;;;;;;;15.67;8.73;;;9.40;69.80;;;;;;5047248;28;20017;-79
2021/10/12 08:17:13;;;;;;;14.67;8.40;;;9.40;69.80;;;;;;5049066;28;20040;-79
2021/10/12 08:19:38;;;;;;;14.63;9.00;;;9.40;69.90;;;;;;5039736;28;20022;-79
2021/10/12 08:22:05;;;;;;;13.83;8.60;;;9.50;70.20;;;;;;5045249;28;20036;-79
2021/10/12 08:24:30;;;;;;;11.40;6.80;;;9.60;70.10;;;;;;5051728;28;20077;-79
2021/10/12 08:26:56;;;;;;;11.13;7.43;;;9.60;69.90;;;;;;5059999;28;20115;-79
2021/10/12 08:29:22;;;;;;;11.87;6.87;;;9.70;69.80;;;;;;5072805;28;20060;-79
2021/10/12 08:31:48;;;;;;;10.73;6.77;;;9.70;69.80;;;;;;5047519;28;20544;-79
2021/10/12 08:34:14;;;;;;;9.87;6.90;;;9.80;69.80;;;;;;5053538;28;20025;-79
2021/10/12 08:36:41;;;;;;;9.80;7.17;;;9.80;69.60;;;;;;5049394;28;20119;-79
2021/10/12 08:39:08;;;;;;;10.70;6.33;;;9.90;69.50;;;;;;5044587;28;20028;-79
2021/10/12 08:41:56;;;;;;;10.93;6.33;;;10.00;69.40;;;;;;5050506;28;20566;-80
2021/10/12 08:44:22;;;;;;;17.67;7.80;;;10.00;69.10;;;;;;5040477;28;20044;-79
2021/10/12 08:46:48;;;;;;;12.40;7.87;;;10.00;69.70;;;;;;5044698;28;20503;-79
2021/10/12 08:49:14;;;;;;;12.70;8.00;;;9.90;69.20;;;;;;5037534;28;20037;-79
2021/10/12 08:51:44;;;;;;;14.17;6.97;;;10.00;69.40;;;;;;5036297;28;20032;-79
2021/10/12 08:54:11;;;;;;;11.57;7.60;;;10.00;69.30;;;;;;5048566;28;20406;-79
2021/10/12 08:56:38;;;;;;;11.90;7.27;;;9.90;69.40;;;;;;5049908;28;20060;-79
2021/10/12 08:59:04;;;;;;;13.07;7.13;;;9.90;69.50;;;;;;5051288;28;20032;-79
2021/10/12 09:01:31;;;;;;;14.77;7.03;;;10.00;69.70;;;;;;5051243;28;20049;-79
2021/10/12 09:06:31;;;;;;;11.80;7.00;;;10.00;69.70;;;;;;5049301;28;20506;-79
2021/10/12 09:09:05;;;;;;;11.00;7.73;;;10.20;69.60;;;;;;5048062;28;20063;-79
2021/10/12 09:11:35;;;;;;;13.33;7.33;;;10.10;69.40;;;;;;5047607;28;20025;-79
2021/10/12 09:14:04;;;;;;;12.80;6.90;;;10.10;69.40;;;;;;5047409;28;20044;-79
2021/10/12 09:16:40;;;;;;;11.43;7.40;;;10.10;69.40;;;;;;5050844;28;20439;-80
2021/10/12 09:19:08;;;;;;;11.77;6.90;;;10.10;69.40;;;;;;5037649;28;20040;-80
2021/10/12 09:21:36;;;;;;;12.53;6.60;;;10.10;69.50;;;;;;5040935;28;20057;-80
2021/10/12 09:24:14;;;;;;;13.63;7.50;;;10.10;69.50;;;;;;5050748;28;20036;-79
2021/10/12 09:26:43;;;;;;;13.67;7.03;;;10.10;69.60;;;;;;5050928;28;20035;-80
2021/10/12 09:32:06;;;;;;;11.83;7.13;;;10.20;69.60;;;;;;5042509;28;20040;-80
2021/10/12 09:34:34;;;;;;;12.03;7.30;;;10.20;69.60;;;;;;5047802;28;20472;-80
2021/10/12 09:37:01;;;;;;;14.73;7.93;;;10.20;69.60;;;;;;5051449;28;20017;-80
2021/10/12 09:39:42;;;;;;;11.37;7.13;;;10.30;69.50;;;;;;5051221;28;20033;-80
2021/10/12 09:42:10;;;;;;;11.50;7.93;;;10.30;69.70;;;;;;5049996;28;20040;-79
2021/10/12 09:44:48;;;;;;;11.77;7.43;;;10.30;69.80;;;;;;5056522;28;20030;-79
2021/10/12 09:47:15;;;;;;;10.67;7.27;;;10.40;69.80;;;;;;5049899;28;20123;-80
2021/10/12 09:49:43;;;;;;;14.27;7.10;;;10.30;69.70;;;;;;5050600;28;20077;-79
2021/10/12 09:52:14;;;;;;;11.73;7.17;;;10.40;70.10;;;;;;5050924;28;20029;-80
2021/10/12 09:54:57;;;;;;;14.37;6.83;;;10.40;69.70;;;;;;5049395;28;20492;-79
2021/10/12 09:57:28;;;;;;;13.25;6.55;;;10.40;69.60;;;;;;5050088;28;20029;-80
2021/10/12 09:59:54;;;;;;;14.03;6.63;;;10.50;69.60;;;;;;5047079;28;20045;-80
2021/10/12 10:02:21;;;;;;;11.23;7.10;;;10.60;69.30;;;;;;5040952;28;20044;-79
2021/10/12 10:04:48;;;;;;;13.03;6.73;;;10.70;68.70;;;;;;5036874;28;20476;-80
2021/10/12 10:07:40;;;;;;;16.30;7.20;;;10.60;68.60;;;;;;5050875;28;20029;-80
2021/10/12 10:10:06;;;;;;;11.47;6.67;;;10.60;69.00;;;;;;5031100;28;20031;-80
2021/10/12 10:12:33;;;;;;;11.93;7.57;;;10.50;69.10;;;;;;5035214;28;20028;-80
2021/10/12 10:14:58;;;;;;;11.60;7.83;;;10.60;69.50;;;;;;5043386;28;20590;-79
2021/10/12 10:17:25;;;;;;;13.00;5.70;;;10.70;69.10;;;;;;5051094;28;20021;-80
2021/10/12 10:19:52;;;;;;;11.47;7.30;;;10.80;69.30;;;;;;5051615;28;20036;-80
2021/10/12 10:22:49;;;;;;;18.03;7.83;;;10.90;69.00;;;;;;5051338;28;20029;-79
2021/10/12 10:25:34;;;;;;;11.50;7.40;;;11.00;68.70;;;;;;5044467;28;20029;-80
2021/10/12 10:28:19;;;;;;;8.07;6.27;;;11.00;68.40;;;;;;5048909;28;20040;-80
2021/10/12 10:30:57;;;;;;;10.70;6.53;;;11.00;68.10;;;;;;5046564;28;20052;-80
2021/10/12 10:33:37;;;;;;;9.77;6.43;;;11.10;68.10;;;;;;5017656;28;20092;-80
2021/10/12 10:36:07;;;;;;;11.73;7.33;;;11.20;67.70;;;;;;5041160;28;20025;-80
2021/10/12 10:38:36;;;;;;;15.30;6.93;;;11.30;67.90;;;;;;5065142;28;20433;-80
2021/10/12 10:41:04;;;;;;;10.67;6.70;;;11.40;67.50;;;;;;5036413;28;20092;-80
2021/10/12 10:43:49;;;;;;;10.80;7.50;;;11.50;67.50;;;;;;5049306;28;20028;-81
2021/10/12 10:46:35;;;;;;;13.37;7.37;;;11.60;67.20;;;;;;5031100;28;20060;-80
2021/10/12 10:49:25;;;;;;;10.40;7.43;;;11.50;67.10;;;;;;5046947;28;20033;-80
2021/10/12 10:51:55;;;;;;;16.43;7.73;;;11.50;67.60;;;;;;5051020;28;20120;-80
2021/10/12 10:54:39;;;;;;;15.47;8.80;;;11.60;67.80;;;;;;5044897;28;20047;-80
2021/10/12 10:57:21;;;;;;;11.40;7.47;;;11.70;67.30;;;;;;5040217;28;20017;-80
2021/10/12 11:00:12;;;;;;;7.43;5.70;;;11.70;66.80;;;;;;5058966;28;20166;-80
2021/10/12 11:02:38;;;;;;;8.57;6.10;;;11.60;66.70;;;;;;5064084;28;20075;-80
2021/10/12 11:05:04;;;;;;;8.90;6.03;;;11.60;66.60;;;;;;5043060;28;20368;-80
2021/10/12 11:07:30;;;;;;;10.77;5.20;;;11.70;66.30;;;;;;5049706;28;20041;-80
2021/10/12 11:09:57;;;;;;;7.27;5.50;;;11.60;65.90;;;;;;5043663;28;20040;-80
2021/10/12 11:12:28;;;;;;;12.33;6.33;;;11.70;65.80;;;;;;5042539;28;20097;-80
2021/10/12 11:15:06;;;;;;;9.23;6.10;;;11.70;65.30;;;;;;5048196;28;20105;-80
2021/10/12 11:17:32;;;;;;;8.27;5.20;;;11.70;65.20;;;;;;5049145;28;20025;-80
2021/10/12 11:20:03;;;;;;;7.23;5.23;;;11.70;64.90;;;;;;5045197;28;20040;-80
2021/10/12 11:22:29;;;;;;;9.17;5.90;;;11.80;64.80;;;;;;5040135;28;20021;-80
2021/10/12 11:24:56;;;;;;;10.03;5.60;;;11.80;64.50;;;;;;5046490;28;20068;-80
2021/10/12 11:27:24;;;;;;;13.87;6.33;;;11.90;64.50;;;;;;5034296;28;20025;-80
2021/10/12 11:30:07;;;;;;;10.67;5.63;;;11.90;64.50;;;;;;5041050;28;20037;-80
2021/10/12 11:32:33;;;;;;;10.25;5.95;;;11.90;64.60;;;;;;5047358;28;20112;-80
2021/10/12 11:35:10;;;;;;;7.50;5.00;;;11.80;64.40;;;;;;5046706;28;20104;-80
2021/10/12 11:37:53;;;;;;;8.33;5.30;;;11.90;63.90;;;;;;5049551;28;20743;-80
2021/10/12 11:40:22;;;;;;;10.45;6.15;;;12.00;63.80;;;;;;5041729;28;20025;-80
2021/10/12 11:42:48;;;;;;;10.63;5.80;;;12.00;63.90;;;;;;5063295;28;20033;-80
2021/10/12 11:45:13;;;;;;;9.97;6.13;;;12.00;63.80;;;;;;5068426;28;20083;-80
2021/10/12 11:47:40;;;;;;;9.97;6.07;;;12.00;63.80;;;;;;5053765;28;20029;-80
2021/10/12 11:50:10;;;;;;;10.67;5.70;;;12.00;63.50;;;;;;5053333;28;20060;-80
2021/10/12 11:52:36;;;;;;;8.33;5.63;;;12.00;63.50;;;;;;5055091;28;20066;-80
2021/10/12 11:55:06;;;;;;;9.93;6.00;;;12.00;63.60;;;;;;5048038;28;20021;-80
2021/10/12 11:57:31;;;;;;;9.00;5.77;;;11.90;63.70;;;;;;5047710;28;20048;-80
2021/10/12 11:59:57;;;;;;;12.30;6.20;;;12.00;63.60;;;;;;5049129;28;20029;-80
2021/10/12 12:02:24;;;;;;;9.47;6.77;;;12.00;63.30;;;;;;5053582;28;20082;-80
2021/10/12 12:04:53;;;;;;;15.77;9.70;;;12.00;63.20;;;;;;5049862;28;20161;-80
2021/10/12 12:07:19;;;;;;;12.00;7.43;;;12.10;63.20;;;;;;5049934;28;20112;-80
2021/10/12 12:09:46;;;;;;;10.03;6.60;;;12.10;63.30;;;;;;5046690;28;20467;-80
2021/10/12 12:12:13;;;;;;;10.20;6.47;;;12.10;63.30;;;;;;5052479;28;20040;-80
2021/10/12 12:14:40;;;;;;;9.83;6.67;;;12.10;63.20;;;;;;5050429;28;20017;-80
2021/10/12 12:17:17;;;;;;;18.20;10.93;;;12.10;63.10;;;;;;5051151;28;20025;-81
2021/10/12 12:19:57;;;;;;;10.17;7.67;;;12.10;62.90;;;;;;5051160;28;20021;-80
2021/10/12 12:22:28;;;;;;;9.97;7.00;;;12.10;62.90;;;;;;5051554;28;20033;-80
2021/10/12 12:25:12;;;;;;;14.63;9.10;;;12.00;63.00;;;;;;5057621;28;20025;-80
2021/10/12 12:27:58;;;;;;;14.57;8.67;;;12.00;63.00;;;;;;5051728;28;20422;-80
2021/10/12 12:30:38;;;;;;;14.77;8.23;;;12.00;62.80;;;;;;5045320;28;20061;-80
2021/10/12 12:33:05;;;;;;;20.50;12.07;;;12.00;62.80;;;;;;5049080;28;20667;-80
2021/10/12 12:35:38;;;;;;;12.87;8.30;;;12.00;62.80;;;;;;5050690;28;20023;-80
2021/10/12 12:38:04;;;;;;;18.95;9.73;;;12.00;62.90;;;;;;5049359;28;20505;-80
2021/10/12 12:40:33;;;;;;;11.80;8.63;;;12.00;63.10;;;;;;5047745;28;20068;-80
2021/10/12 12:43:16;;;;;;;10.20;7.13;;;12.00;63.00;;;;;;5048817;28;20043;-80
2021/10/12 12:45:41;;;;;;;;;;;12.00;63.00;;;;;;5047935;28;20048;-80
2021/10/12 12:48:07;;;;;;;14.40;6.80;;;11.90;63.30;;;;;;5052478;28;19908;-80
2021/10/12 12:50:38;;;;;;;12.20;7.57;;;11.90;63.20;;;;;;5055488;28;20403;-80
2021/10/12 12:53:06;;;;;;;9.30;6.97;;;11.90;63.10;;;;;;5050261;28;20035;-80
2021/10/12 12:55:43;;;;;;;8.77;6.83;;;12.00;63.40;;;;;;5051351;28;20021;-80
2021/10/12 12:58:11;;;;;;;13.80;7.40;;;12.00;63.40;;;;;;5052014;28;20033;-80
2021/10/12 13:00:56;;;;;;;11.90;7.47;;;12.00;63.80;;;;;;5042943;28;20087;-80